createdAt,value
2023-04-04T00:00:22.816Z,85.23
2023-04-04T00:01:04.757Z,85.54
2023-04-04T00:01:46.342Z,85.37
2023-04-04T00:02:28.007Z,85.44
2023-04-04T00:03:09.766Z,84.92
2023-04-04T00:03:52.164Z,85.60
2023-04-04T00:04:33.904Z,85.32
2023-04-04T00:05:15.562Z,85.36
2023-04-04T00:05:57.276Z,85.22
2023-04-04T00:06:44.171Z,84.95
2023-04-04T00:07:26.449Z,84.88
2023-04-04T00:08:08.084Z,85.00
2023-04-04T00:08:49.732Z,84.83
2023-04-04T00:09:31.314Z,84.66
2023-04-04T00:10:13.061Z,84.48
2023-04-04T00:10:59.376Z,84.47
2023-04-04T00:11:42.403Z,85.07
2023-04-04T00:12:26.597Z,84.94
2023-04-04T00:13:10.172Z,84.48
2023-04-04T00:13:52.034Z,84.60
2023-04-04T00:14:33.649Z,85.19
2023-04-04T00:15:15.527Z,85.79
2023-04-04T00:15:57.137Z,85.49
2023-04-04T00:16:38.813Z,85.74
2023-04-04T00:17:20.527Z,85.60
2023-04-04T00:18:04.007Z,85.64
2023-04-04T00:18:46.061Z,85.41
2023-04-04T00:19:27.626Z,85.34
2023-04-04T00:20:12.418Z,84.98
2023-04-04T00:20:54.038Z,85.09
2023-04-04T00:21:35.772Z,84.87
2023-04-04T00:22:18.940Z,84.95
2023-04-04T00:23:00.578Z,85.13
2023-04-04T00:23:42.196Z,85.68
2023-04-04T00:24:24.752Z,85.65
2023-04-04T00:25:06.642Z,85.43
2023-04-04T00:25:52.280Z,85.17
2023-04-04T00:26:34.550Z,84.82
2023-04-04T00:27:16.148Z,84.98
2023-04-04T00:28:00.773Z,85.23
2023-04-04T00:28:42.786Z,85.77
2023-04-04T00:29:24.407Z,85.83
2023-04-04T00:30:06.878Z,85.77
2023-04-04T00:30:48.719Z,85.68
2023-04-04T00:31:30.389Z,85.53
2023-04-04T00:32:12.198Z,85.97
2023-04-04T00:32:53.898Z,85.81
2023-04-04T00:33:35.521Z,86.19
2023-04-04T00:34:17.080Z,86.20
2023-04-04T00:34:58.977Z,86.45
2023-04-04T00:35:41.305Z,86.15
2023-04-04T00:36:23.528Z,85.61
2023-04-04T00:37:07.311Z,85.77
2023-04-04T00:37:49.001Z,85.81
2023-04-04T00:38:31.038Z,85.95
2023-04-04T00:39:12.653Z,86.05
2023-04-04T00:39:54.261Z,85.92
2023-04-04T00:40:48.849Z,86.21
2023-04-04T00:41:30.632Z,86.50
2023-04-04T00:42:12.761Z,86.86
2023-04-04T00:42:54.541Z,86.68
2023-04-04T00:43:36.299Z,86.55
2023-04-04T00:44:18.621Z,86.73
2023-04-04T00:45:00.393Z,86.74
2023-04-04T00:45:42.973Z,86.65
2023-04-04T00:46:26.715Z,88.39
2023-04-04T00:47:08.367Z,88.82
2023-04-04T00:47:51.107Z,88.55
2023-04-04T00:48:33.167Z,88.59
2023-04-04T00:49:14.771Z,88.10
2023-04-04T00:49:56.341Z,87.98
2023-04-04T00:50:38.233Z,87.72
2023-04-04T00:51:20.565Z,87.91
2023-04-04T00:52:02.369Z,87.51
2023-04-04T00:52:44.056Z,87.79
2023-04-04T00:53:26.271Z,87.59
2023-04-04T00:54:08.815Z,87.81
2023-04-04T00:54:51.232Z,87.53
2023-04-04T00:55:33.422Z,87.80
2023-04-04T00:56:15.436Z,87.63
2023-04-04T00:56:58.157Z,87.75
2023-04-04T00:57:40.026Z,88.06
2023-04-04T00:58:21.662Z,88.11
2023-04-04T00:59:03.417Z,88.10
2023-04-04T00:59:45.274Z,89.46
2023-04-04T01:00:27.718Z,89.60
2023-04-04T01:01:12.411Z,89.17
2023-04-04T01:01:54.066Z,89.35
2023-04-04T01:02:36.184Z,89.07
2023-04-04T01:03:19.337Z,88.85
2023-04-04T01:04:01.051Z,89.09
2023-04-04T01:04:42.828Z,89.19
2023-04-04T01:05:24.781Z,88.71
2023-04-04T01:06:09.620Z,89.30
2023-04-04T01:06:52.022Z,89.30
2023-04-04T01:07:37.111Z,89.17
2023-04-04T01:08:23.190Z,89.31
2023-04-04T01:09:06.054Z,89.86
2023-04-04T01:09:48.518Z,89.53
2023-04-04T01:10:30.818Z,89.41
2023-04-04T01:11:15.468Z,89.79
2023-04-04T01:11:57.276Z,90.16
2023-04-04T01:12:42.306Z,89.86
2023-04-04T01:13:24.845Z,90.04
2023-04-04T01:14:07.397Z,89.73
2023-04-04T01:14:49.018Z,89.87
2023-04-04T01:15:31.106Z,90.01
2023-04-04T01:16:12.732Z,90.39
2023-04-04T01:16:54.636Z,90.60
2023-04-04T01:17:42.863Z,90.48
2023-04-04T01:18:26.349Z,90.88
2023-04-04T01:19:11.382Z,91.26
2023-04-04T01:20:20.553Z,91.21
2023-04-04T01:21:10.611Z,90.87
2023-04-04T01:21:53.868Z,91.11
2023-04-04T01:22:40.351Z,91.13
2023-04-04T01:23:29.870Z,91.33
2023-04-04T01:24:16.628Z,91.68
2023-04-04T01:25:07.095Z,91.79
2023-04-04T01:25:49.947Z,92.01
2023-04-04T01:26:31.947Z,92.21
2023-04-04T01:27:17.013Z,92.63
2023-04-04T01:28:07.008Z,91.96
2023-04-04T01:28:48.707Z,91.71
2023-04-04T01:29:30.490Z,91.65
2023-04-04T01:30:15.468Z,91.79
2023-04-04T01:31:01.420Z,92.22
2023-04-04T01:31:49.500Z,93.23
2023-04-04T01:32:42.179Z,94.23
2023-04-04T01:33:31.549Z,94.90
2023-04-04T01:34:36.116Z,94.95
2023-04-04T01:35:31.086Z,95.89
2023-04-04T01:36:30.595Z,96.84
2023-04-04T01:37:27.955Z,96.47
2023-04-04T01:38:37.820Z,96.34
2023-04-04T01:39:32.495Z,95.30
2023-04-04T01:40:21.748Z,94.51
2023-04-04T01:41:08.847Z,94.46
2023-04-04T01:41:56.062Z,95.34
2023-04-04T01:42:38.642Z,94.73
2023-04-04T01:43:21.035Z,96.06
2023-04-04T01:44:03.469Z,96.14
2023-04-04T01:44:45.703Z,97.45
2023-04-04T01:45:29.520Z,98.57
2023-04-04T01:46:12.781Z,98.17
2023-04-04T01:46:55.685Z,97.49
2023-04-04T01:47:41.725Z,97.77
2023-04-04T01:48:27.694Z,97.19
2023-04-04T01:49:11.338Z,97.23
2023-04-04T01:49:54.055Z,96.20
2023-04-04T01:50:36.456Z,96.11
2023-04-04T01:51:18.471Z,95.84
2023-04-04T01:52:00.911Z,96.81
2023-04-04T01:52:42.896Z,97.62
2023-04-04T01:53:24.501Z,97.52
2023-04-04T01:54:06.156Z,97.38
2023-04-04T01:54:48.320Z,97.41
2023-04-04T01:55:30.406Z,98.20
2023-04-04T01:56:13.164Z,98.77
2023-04-04T01:56:55.145Z,98.21
2023-04-04T01:57:37.121Z,99.92
2023-04-04T01:58:18.842Z,99.40
2023-04-04T01:59:01.389Z,100.00
2023-04-04T01:59:43.492Z,99.83
2023-04-04T02:00:25.892Z,98.99
2023-04-04T02:01:07.906Z,98.27
2023-04-04T02:01:49.886Z,97.84
2023-04-04T02:02:31.626Z,97.78
2023-04-04T02:03:13.270Z,98.30
2023-04-04T02:03:54.948Z,98.48
2023-04-04T02:04:37.476Z,98.32
2023-04-04T02:05:19.193Z,98.50
2023-04-04T02:06:01.470Z,98.34
2023-04-04T02:06:43.190Z,97.53
2023-04-04T02:07:24.808Z,97.48
2023-04-04T02:08:06.514Z,97.26
2023-04-04T02:08:56.931Z,97.50
2023-04-04T02:09:40.438Z,97.16
2023-04-04T02:10:22.173Z,96.98
2023-04-04T02:11:04.377Z,96.77
2023-04-04T02:11:45.966Z,96.79
2023-04-04T02:12:27.771Z,97.27
2023-04-04T02:13:09.411Z,96.78
2023-04-04T02:13:51.057Z,96.38
2023-04-04T02:14:34.575Z,96.71
2023-04-04T02:15:16.699Z,97.87
2023-04-04T02:15:58.392Z,98.94
2023-04-04T02:16:40.018Z,98.98
2023-04-04T02:17:21.614Z,98.91
2023-04-04T02:18:03.616Z,98.87
2023-04-04T02:18:45.940Z,98.24
2023-04-04T02:19:27.549Z,98.79
2023-04-04T02:20:10.560Z,98.46
2023-04-04T02:20:57.433Z,98.51
2023-04-04T02:21:39.008Z,97.93
2023-04-04T02:22:20.573Z,97.56
2023-04-04T02:23:02.176Z,97.29
2023-04-04T02:23:43.721Z,98.87
2023-04-04T02:24:25.490Z,98.72
2023-04-04T02:25:07.477Z,98.20
2023-04-04T02:25:50.938Z,97.75
2023-04-04T02:26:32.572Z,97.92
2023-04-04T02:27:14.199Z,97.71
2023-04-04T02:27:55.835Z,99.02
2023-04-04T02:28:39.540Z,100.00
2023-04-04T02:29:21.165Z,99.84
2023-04-04T02:30:02.759Z,100.00
2023-04-04T02:30:44.682Z,99.24
2023-04-04T02:31:26.488Z,99.31
2023-04-04T02:32:08.197Z,98.65
2023-04-04T02:32:50.253Z,98.85
2023-04-04T02:33:34.069Z,99.61
2023-04-04T02:34:19.012Z,99.86
2023-04-04T02:35:03.095Z,99.76
2023-04-04T02:35:44.691Z,99.17
2023-04-04T02:36:26.396Z,99.09
2023-04-04T02:37:09.161Z,99.38
2023-04-04T02:37:50.810Z,99.85
2023-04-04T02:38:39.134Z,99.33
2023-04-04T02:39:21.017Z,99.12
2023-04-04T02:40:04.120Z,98.80
2023-04-04T02:40:48.380Z,98.58
2023-04-04T02:41:30.154Z,98.51
2023-04-04T02:42:12.380Z,98.68
2023-04-04T02:42:54.198Z,98.76
2023-04-04T02:43:36.228Z,98.91
2023-04-04T02:44:22.181Z,98.79
2023-04-04T02:45:05.610Z,99.08
2023-04-04T02:45:48.425Z,99.40
2023-04-04T02:46:38.828Z,100.00
2023-04-04T02:47:23.144Z,100.00
2023-04-04T02:48:04.929Z,100.00
2023-04-04T02:48:54.691Z,99.92
2023-04-04T02:49:36.495Z,99.60
2023-04-04T02:50:18.659Z,99.99
2023-04-04T02:51:06.726Z,100.00
2023-04-04T02:51:49.400Z,100.00
2023-04-04T02:52:31.171Z,100.00
2023-04-04T02:53:16.702Z,100.00
2023-04-04T02:54:00.830Z,99.90
2023-04-04T02:54:49.738Z,100.00
2023-04-04T02:55:42.470Z,100.00
2023-04-04T02:56:24.381Z,100.00
2023-04-04T02:57:06.354Z,100.00
2023-04-04T02:57:52.052Z,100.00
2023-04-04T02:58:33.905Z,100.00
2023-04-04T02:59:15.495Z,100.00
2023-04-04T02:59:57.184Z,100.00
2023-04-04T03:00:39.160Z,100.00
2023-04-04T03:01:21.182Z,100.00
2023-04-04T03:02:03.179Z,100.00
2023-04-04T03:02:46.597Z,100.00
2023-04-04T03:03:28.541Z,100.00
2023-04-04T03:04:10.998Z,100.00
2023-04-04T03:04:52.892Z,100.00
2023-04-04T03:05:34.633Z,100.00
2023-04-04T03:06:16.917Z,100.00
2023-04-04T03:06:58.512Z,100.00
2023-04-04T03:07:40.305Z,100.00
2023-04-04T03:08:22.903Z,100.00
2023-04-04T03:09:04.965Z,100.00
2023-04-04T03:09:46.850Z,100.00
2023-04-04T03:10:32.259Z,100.00
2023-04-04T03:11:23.038Z,100.00
2023-04-04T03:12:07.405Z,100.00
2023-04-04T03:12:49.198Z,100.00
2023-04-04T03:13:31.410Z,100.00
2023-04-04T03:14:13.121Z,100.00
2023-04-04T03:14:54.935Z,100.00
2023-04-04T03:15:36.498Z,100.00
2023-04-04T03:16:20.152Z,100.00
2023-04-04T03:17:06.449Z,100.00
2023-04-04T03:17:48.717Z,100.00
2023-04-04T03:18:30.494Z,100.00
2023-04-04T03:19:12.348Z,100.00
2023-04-04T03:19:53.926Z,100.00
2023-04-04T03:20:35.993Z,100.00
2023-04-04T03:21:17.589Z,100.00
2023-04-04T03:21:59.203Z,100.00
2023-04-04T03:22:41.983Z,100.00
2023-04-04T03:23:23.625Z,100.00
2023-04-04T03:24:05.376Z,100.00
2023-04-04T03:24:47.087Z,100.00
2023-04-04T03:25:28.996Z,100.00
2023-04-04T03:26:10.755Z,100.00
2023-04-04T03:26:52.401Z,100.00
2023-04-04T03:27:34.728Z,100.00
2023-04-04T03:28:16.878Z,100.00
2023-04-04T03:28:59.636Z,100.00
2023-04-04T03:29:42.087Z,100.00
2023-04-04T03:30:24.101Z,100.00
2023-04-04T03:31:06.459Z,100.00
2023-04-04T03:31:51.045Z,100.00
2023-04-04T03:32:32.727Z,100.00
2023-04-04T03:33:15.194Z,100.00
2023-04-04T03:33:56.821Z,100.00
2023-04-04T03:34:41.133Z,100.00
2023-04-04T03:35:22.739Z,100.00
2023-04-04T03:36:13.822Z,100.00
2023-04-04T03:36:57.499Z,100.00
2023-04-04T03:37:40.135Z,100.00
2023-04-04T03:38:21.689Z,100.00
2023-04-04T03:39:03.342Z,100.00
2023-04-04T03:39:45.362Z,100.00
2023-04-04T03:40:26.945Z,100.00
2023-04-04T03:41:08.714Z,100.00
2023-04-04T03:41:50.429Z,100.00
2023-04-04T03:42:34.979Z,100.00
2023-04-04T03:43:21.553Z,100.00
2023-04-04T03:44:06.810Z,100.00
2023-04-04T03:44:48.514Z,100.00
2023-04-04T03:45:40.161Z,100.00
2023-04-04T03:46:23.208Z,100.00
2023-04-04T03:47:05.167Z,100.00
2023-04-04T03:47:49.558Z,100.00
2023-04-04T03:48:32.492Z,100.00
2023-04-04T03:49:14.211Z,100.00
2023-04-04T03:49:56.332Z,100.00
2023-04-04T03:50:38.846Z,100.00
2023-04-04T03:51:24.658Z,100.00
2023-04-04T03:52:06.787Z,100.00
2023-04-04T03:52:48.440Z,100.00
2023-04-04T03:53:30.153Z,100.00
2023-04-04T03:54:11.846Z,100.00
2023-04-04T03:54:53.415Z,100.00
2023-04-04T03:55:35.086Z,100.00
2023-04-04T03:56:17.106Z,100.00
2023-04-04T03:56:58.829Z,100.00
2023-04-04T03:57:41.074Z,100.00
2023-04-04T03:58:27.432Z,100.00
2023-04-04T03:59:09.578Z,100.00
2023-04-04T03:59:51.445Z,100.00
2023-04-04T04:00:33.672Z,100.00
2023-04-04T04:01:15.261Z,100.00
2023-04-04T04:01:56.827Z,100.00
2023-04-04T04:02:38.563Z,100.00
2023-04-04T04:03:21.429Z,100.00
2023-04-04T04:04:03.226Z,100.00
2023-04-04T04:04:44.908Z,100.00
2023-04-04T04:05:26.675Z,100.00
2023-04-04T04:06:08.332Z,100.00
2023-04-04T04:06:49.972Z,100.00
2023-04-04T04:07:31.561Z,100.00
2023-04-04T04:08:13.679Z,100.00
2023-04-04T04:08:56.480Z,100.00
2023-04-04T04:09:38.582Z,100.00
2023-04-04T04:10:21.610Z,100.00
2023-04-04T04:11:06.812Z,100.00
2023-04-04T04:11:48.515Z,100.00
2023-04-04T04:12:30.299Z,100.00
2023-04-04T04:13:12.000Z,100.00
2023-04-04T04:13:53.699Z,100.00
2023-04-04T04:14:35.324Z,100.00
2023-04-04T04:15:17.715Z,100.00
2023-04-04T04:16:00.584Z,100.00
2023-04-04T04:16:42.372Z,100.00
2023-04-04T04:17:27.125Z,100.00
2023-04-04T04:18:09.205Z,100.00
2023-04-04T04:18:50.766Z,100.00
2023-04-04T04:19:39.826Z,100.00
2023-04-04T04:20:23.002Z,100.00
2023-04-04T04:21:07.403Z,100.00
2023-04-04T04:21:49.081Z,100.00
2023-04-04T04:22:31.873Z,100.00
2023-04-04T04:23:13.523Z,100.00
2023-04-04T04:23:55.404Z,100.00
2023-04-04T04:24:37.102Z,100.00
2023-04-04T04:25:19.726Z,100.00
2023-04-04T04:26:11.403Z,100.00
2023-04-04T04:26:52.984Z,100.00
2023-04-04T04:27:36.047Z,100.00
2023-04-04T04:28:17.788Z,100.00
2023-04-04T04:28:59.599Z,100.00
2023-04-04T04:29:44.601Z,100.00
2023-04-04T04:30:26.610Z,100.00
2023-04-04T04:31:09.687Z,100.00
2023-04-04T04:31:57.715Z,100.00
2023-04-04T04:32:43.246Z,100.00
2023-04-04T04:33:31.671Z,100.00
2023-04-04T04:34:17.828Z,100.00
2023-04-04T04:34:59.499Z,100.00
2023-04-04T04:35:44.995Z,100.00
2023-04-04T04:36:27.343Z,100.00
2023-04-04T04:37:30.382Z,100.00
2023-04-04T04:38:13.143Z,100.00
2023-04-04T04:38:54.846Z,100.00
2023-04-04T04:39:36.953Z,100.00
2023-04-04T04:40:45.637Z,100.00
2023-04-04T04:41:32.835Z,100.00
2023-04-04T04:42:15.939Z,100.00
2023-04-04T04:43:04.439Z,100.00
2023-04-04T04:43:46.005Z,100.00
2023-04-04T04:44:27.641Z,100.00
2023-04-04T04:45:10.889Z,100.00
2023-04-04T04:45:54.898Z,100.00
2023-04-04T04:46:36.677Z,100.00
2023-04-04T04:47:25.111Z,100.00
2023-04-04T04:48:07.737Z,100.00
2023-04-04T04:48:56.177Z,100.00
2023-04-04T04:49:44.552Z,100.00
2023-04-04T04:50:26.743Z,100.00
2023-04-04T04:51:08.619Z,100.00
2023-04-04T04:51:56.079Z,100.00
2023-04-04T04:52:38.522Z,100.00
2023-04-04T04:53:20.485Z,100.00
2023-04-04T04:54:02.960Z,100.00
2023-04-04T04:54:45.817Z,100.00
2023-04-04T04:55:28.237Z,100.00
2023-04-04T04:56:22.923Z,100.00
2023-04-04T04:57:07.133Z,100.00
2023-04-04T04:57:49.843Z,100.00
2023-04-04T04:58:38.365Z,100.00
2023-04-04T04:59:23.335Z,100.00
2023-04-04T05:00:06.033Z,100.00
2023-04-04T05:00:47.758Z,100.00
2023-04-04T05:01:29.516Z,100.00
2023-04-04T05:02:12.056Z,100.00
2023-04-04T05:03:00.524Z,100.00
2023-04-04T05:04:01.489Z,100.00
2023-04-04T05:04:52.618Z,100.00
2023-04-04T05:05:34.623Z,100.00
2023-04-04T05:06:19.701Z,100.00
2023-04-04T05:07:01.554Z,100.00
2023-04-04T05:07:46.698Z,100.00
2023-04-04T05:08:28.822Z,100.00
2023-04-04T05:09:30.031Z,100.00
2023-04-04T05:10:12.310Z,100.00
2023-04-04T05:10:55.116Z,100.00
2023-04-04T05:11:40.196Z,100.00
2023-04-04T05:12:23.834Z,100.00
2023-04-04T05:13:07.132Z,100.00
2023-04-04T05:13:55.749Z,100.00
2023-04-04T05:14:39.281Z,100.00
2023-04-04T05:15:21.929Z,100.00
2023-04-04T05:16:06.374Z,100.00
2023-04-04T05:16:49.769Z,100.00
2023-04-04T05:17:35.623Z,100.00
2023-04-04T05:18:20.846Z,100.00
2023-04-04T05:19:02.839Z,100.00
2023-04-04T05:19:50.578Z,100.00
2023-04-04T05:20:35.804Z,100.00
2023-04-04T05:21:19.641Z,100.00
2023-04-04T05:22:03.112Z,100.00
2023-04-04T05:22:55.780Z,100.00
2023-04-04T05:23:48.484Z,100.00
2023-04-04T05:24:31.506Z,100.00
2023-04-04T05:25:14.469Z,100.00
2023-04-04T05:25:59.682Z,100.00
2023-04-04T05:26:45.498Z,100.00
2023-04-04T05:27:27.732Z,100.00
2023-04-04T05:28:13.348Z,100.00
2023-04-04T05:28:55.337Z,100.00
2023-04-04T05:29:38.703Z,100.00
2023-04-04T05:30:20.385Z,100.00
2023-04-04T05:31:12.061Z,100.00
2023-04-04T05:31:53.675Z,100.00
2023-04-04T05:32:37.988Z,100.00
2023-04-04T05:33:25.051Z,100.00
2023-04-04T05:34:18.112Z,100.00
2023-04-04T05:35:00.045Z,100.00
2023-04-04T05:35:43.367Z,100.00
2023-04-04T05:36:25.264Z,100.00
2023-04-04T05:37:11.813Z,100.00
2023-04-04T05:37:53.797Z,100.00
2023-04-04T05:38:36.128Z,100.00
2023-04-04T05:39:18.168Z,100.00
2023-04-04T05:40:12.004Z,100.00
2023-04-04T05:40:54.490Z,100.00
2023-04-04T05:41:37.630Z,100.00
2023-04-04T05:42:27.092Z,100.00
2023-04-04T05:43:12.540Z,100.00
2023-04-04T05:44:12.392Z,100.00
2023-04-04T05:44:54.161Z,100.00
2023-04-04T05:45:36.835Z,100.00
2023-04-04T05:46:20.992Z,100.00
2023-04-04T05:47:06.294Z,100.00
2023-04-04T05:47:48.323Z,100.00
2023-04-04T05:48:30.096Z,100.00
2023-04-04T05:49:11.727Z,100.00
2023-04-04T05:49:57.951Z,100.00
2023-04-04T05:50:39.721Z,100.00
2023-04-04T05:51:21.633Z,100.00
2023-04-04T05:52:32.555Z,100.00
2023-04-04T05:53:15.224Z,100.00
2023-04-04T05:53:59.669Z,100.00
2023-04-04T05:54:48.115Z,100.00
2023-04-04T05:55:38.089Z,100.00
2023-04-04T05:56:21.926Z,100.00
2023-04-04T05:57:03.582Z,100.00
2023-04-04T05:57:54.942Z,100.00
2023-04-04T05:58:46.340Z,100.00
2023-04-04T05:59:30.528Z,100.00
2023-04-04T06:00:17.764Z,100.00
2023-04-04T06:01:10.765Z,100.00
2023-04-04T06:01:53.533Z,100.00
2023-04-04T06:02:35.185Z,100.00
2023-04-04T06:03:21.666Z,100.00
2023-04-04T06:04:04.139Z,100.00
2023-04-04T06:04:45.904Z,100.00
2023-04-04T06:05:32.393Z,100.00
2023-04-04T06:06:14.214Z,100.00
2023-04-04T06:06:55.857Z,100.00
2023-04-04T06:07:37.794Z,100.00
2023-04-04T06:08:19.541Z,100.00
2023-04-04T06:09:01.509Z,100.00
2023-04-04T06:09:43.563Z,100.00
2023-04-04T06:10:25.905Z,100.00
2023-04-04T06:11:10.719Z,100.00
2023-04-04T06:11:52.325Z,100.00
2023-04-04T06:12:33.927Z,100.00
2023-04-04T06:13:21.097Z,100.00
2023-04-04T06:14:08.215Z,100.00
2023-04-04T06:14:50.139Z,100.00
2023-04-04T06:15:35.568Z,100.00
2023-04-04T06:16:17.447Z,100.00
2023-04-04T06:16:59.245Z,100.00
2023-04-04T06:17:41.022Z,100.00
2023-04-04T06:18:22.777Z,100.00
2023-04-04T06:19:04.399Z,100.00
2023-04-04T06:19:46.047Z,100.00
2023-04-04T06:20:27.721Z,100.00
2023-04-04T06:21:09.571Z,100.00
2023-04-04T06:21:54.012Z,100.00
2023-04-04T06:22:35.949Z,100.00
2023-04-04T06:23:18.367Z,100.00
2023-04-04T06:24:02.478Z,100.00
2023-04-04T06:24:44.122Z,100.00
2023-04-04T06:25:27.160Z,100.00
2023-04-04T06:26:12.530Z,99.77
2023-04-04T06:26:55.987Z,99.10
2023-04-04T06:27:40.410Z,98.31
2023-04-04T06:28:22.508Z,96.45
2023-04-04T06:29:04.992Z,96.56
2023-04-04T06:29:49.421Z,96.31
2023-04-04T06:30:38.232Z,96.41
2023-04-04T06:31:21.260Z,96.20
2023-04-04T06:32:05.279Z,96.09
2023-04-04T06:32:53.491Z,95.52
2023-04-04T06:33:38.432Z,95.24
2023-04-04T06:34:23.161Z,94.97
2023-04-04T06:35:10.486Z,92.86
2023-04-04T06:35:59.980Z,91.78
2023-04-04T06:36:41.741Z,90.91
2023-04-04T06:37:23.416Z,90.44
2023-04-04T06:38:11.565Z,89.51
2023-04-04T06:38:55.234Z,89.22
2023-04-04T06:39:37.484Z,88.09
2023-04-04T06:40:23.509Z,86.54
2023-04-04T06:41:05.200Z,86.68
2023-04-04T06:41:47.998Z,86.82
2023-04-04T06:42:29.709Z,85.50
2023-04-04T06:43:15.876Z,83.12
2023-04-04T06:44:00.677Z,80.65
2023-04-04T06:44:42.396Z,81.56
2023-04-04T06:45:25.078Z,80.74
2023-04-04T06:46:07.077Z,80.86
2023-04-04T06:46:48.816Z,81.68
2023-04-04T06:47:31.959Z,81.91
2023-04-04T06:48:14.870Z,81.54
2023-04-04T06:48:56.540Z,80.42
2023-04-04T06:49:38.181Z,78.49
2023-04-04T06:50:22.176Z,76.95
2023-04-04T06:51:08.124Z,76.33
2023-04-04T06:51:51.082Z,77.10
2023-04-04T06:52:33.297Z,73.58
2023-04-04T06:53:14.977Z,74.80
2023-04-04T06:53:57.059Z,75.41
2023-04-04T06:54:38.817Z,75.98
2023-04-04T06:55:20.465Z,76.16
2023-04-04T06:56:02.077Z,76.05
2023-04-04T06:56:43.912Z,76.01
2023-04-04T06:57:25.652Z,73.92
2023-04-04T06:58:07.289Z,72.05
2023-04-04T06:58:49.610Z,72.77
2023-04-04T06:59:31.404Z,73.48
2023-04-04T07:00:13.835Z,73.82
2023-04-04T07:00:57.116Z,73.65
2023-04-04T07:01:38.764Z,72.64
2023-04-04T07:02:21.218Z,70.38
2023-04-04T07:03:03.056Z,70.54
2023-04-04T07:03:45.073Z,70.64
2023-04-04T07:04:27.043Z,71.23
2023-04-04T07:05:09.112Z,69.51
2023-04-04T07:05:50.712Z,69.50
2023-04-04T07:06:32.290Z,69.47
2023-04-04T07:07:17.195Z,69.70
2023-04-04T07:07:58.786Z,69.17
2023-04-04T07:08:40.782Z,69.54
2023-04-04T07:09:29.092Z,69.30
2023-04-04T07:10:11.502Z,68.16
2023-04-04T07:10:53.158Z,67.63
2023-04-04T07:11:34.857Z,66.99
2023-04-04T07:12:16.618Z,64.85
2023-04-04T07:12:58.254Z,65.17
2023-04-04T07:13:39.863Z,64.42
2023-04-04T07:14:25.022Z,61.55
2023-04-04T07:15:07.613Z,62.14
2023-04-04T07:15:50.080Z,62.56
2023-04-04T07:16:31.871Z,61.40
2023-04-04T07:17:23.745Z,61.91
2023-04-04T07:18:07.533Z,62.43
2023-04-04T07:18:49.367Z,62.29
2023-04-04T07:19:31.141Z,62.08
2023-04-04T07:20:13.405Z,63.00
2023-04-04T07:20:55.048Z,62.89
2023-04-04T07:21:36.620Z,60.30
2023-04-04T07:22:18.374Z,61.33
2023-04-04T07:23:00.004Z,60.24
2023-04-04T07:23:41.768Z,60.24
2023-04-04T07:24:23.430Z,60.55
2023-04-04T07:25:05.833Z,61.12
2023-04-04T07:25:47.622Z,59.91
2023-04-04T07:26:29.205Z,58.92
2023-04-04T07:27:11.331Z,59.05
2023-04-04T07:28:02.229Z,58.66
2023-04-04T07:28:51.516Z,58.79
2023-04-04T07:29:33.082Z,58.55
2023-04-04T07:30:15.505Z,58.65
2023-04-04T07:31:03.509Z,58.13
2023-04-04T07:31:45.151Z,57.41
2023-04-04T07:32:27.003Z,57.99
2023-04-04T07:33:08.823Z,57.89
2023-04-04T07:33:53.940Z,57.71
2023-04-04T07:34:35.576Z,58.03
2023-04-04T07:35:17.332Z,56.85
2023-04-04T07:36:01.445Z,56.47
2023-04-04T07:36:43.486Z,56.62
2023-04-04T07:37:26.684Z,56.64
2023-04-04T07:38:08.295Z,56.96
2023-04-04T07:38:49.929Z,57.42
2023-04-04T07:39:31.988Z,56.31
2023-04-04T07:40:13.902Z,55.61
2023-04-04T07:40:55.753Z,55.80
2023-04-04T07:41:37.462Z,54.86
2023-04-04T07:42:25.382Z,55.54
2023-04-04T07:43:07.269Z,56.04
2023-04-04T07:43:49.382Z,55.82
2023-04-04T07:44:31.104Z,55.82
2023-04-04T07:45:14.025Z,56.24
2023-04-04T07:45:56.232Z,55.61
2023-04-04T07:46:38.364Z,55.56
2023-04-04T07:47:20.625Z,54.72
2023-04-04T07:48:02.608Z,53.99
2023-04-04T07:48:44.503Z,54.31
2023-04-04T07:49:26.157Z,54.78
2023-04-04T07:50:08.149Z,54.34
2023-04-04T07:50:49.786Z,53.82
2023-04-04T07:51:31.509Z,53.91
2023-04-04T07:52:13.420Z,53.33
2023-04-04T07:52:56.119Z,53.44
2023-04-04T07:53:37.820Z,54.14
2023-04-04T07:54:19.386Z,54.51
2023-04-04T07:55:01.649Z,54.95
2023-04-04T07:55:43.214Z,54.28
2023-04-04T07:56:24.925Z,53.97
2023-04-04T07:57:07.828Z,54.48
2023-04-04T07:57:49.439Z,54.11
2023-04-04T07:58:31.231Z,54.39
2023-04-04T07:59:12.908Z,54.16
2023-04-04T07:59:54.564Z,53.99
2023-04-04T08:00:36.976Z,53.13
2023-04-04T08:01:18.710Z,53.02
2023-04-04T08:02:00.502Z,52.90
2023-04-04T08:02:43.820Z,51.65
2023-04-04T08:03:25.896Z,51.80
2023-04-04T08:04:07.827Z,51.52
2023-04-04T08:04:49.504Z,52.37
2023-04-04T08:05:31.454Z,52.87
2023-04-04T08:06:13.301Z,53.44
2023-04-04T08:06:54.976Z,52.96
2023-04-04T08:07:36.663Z,52.49
2023-04-04T08:08:18.703Z,51.22
2023-04-04T08:09:00.713Z,51.30
2023-04-04T08:09:42.387Z,51.61
2023-04-04T08:10:24.075Z,51.78
2023-04-04T08:11:05.756Z,51.70
2023-04-04T08:11:47.436Z,51.87
2023-04-04T08:12:29.102Z,51.03
2023-04-04T08:13:10.811Z,51.54
2023-04-04T08:13:52.487Z,51.11
2023-04-04T08:14:34.101Z,49.95
2023-04-04T08:15:16.338Z,49.76
2023-04-04T08:15:58.121Z,50.58
2023-04-04T08:16:39.909Z,49.32
2023-04-04T08:17:22.044Z,50.11
2023-04-04T08:18:03.871Z,50.73
2023-04-04T08:18:45.535Z,50.58
2023-04-04T08:19:27.388Z,50.61
2023-04-04T08:20:09.720Z,50.81
2023-04-04T08:20:51.423Z,50.39
2023-04-04T08:21:33.210Z,49.63
2023-04-04T08:22:14.792Z,49.75
2023-04-04T08:22:57.368Z,49.62
2023-04-04T08:23:38.951Z,50.24
2023-04-04T08:24:22.378Z,50.70
2023-04-04T08:25:04.553Z,51.78
2023-04-04T08:25:47.452Z,50.96
2023-04-04T08:26:29.259Z,50.58
2023-04-04T08:27:11.278Z,51.20
2023-04-04T08:27:53.071Z,50.48
2023-04-04T08:28:34.905Z,50.49
2023-04-04T08:29:17.021Z,50.78
2023-04-04T08:29:58.582Z,50.23
2023-04-04T08:30:40.346Z,49.78
2023-04-04T08:31:23.543Z,50.39
2023-04-04T08:32:05.502Z,50.63
2023-04-04T08:32:47.502Z,50.77
2023-04-04T08:33:40.764Z,50.52
2023-04-04T08:34:28.714Z,49.73
2023-04-04T08:35:10.619Z,49.81
2023-04-04T08:35:53.147Z,50.12
2023-04-04T08:36:35.623Z,50.72
2023-04-04T08:37:18.224Z,50.35
2023-04-04T08:38:02.465Z,49.75
2023-04-04T08:38:44.638Z,49.62
2023-04-04T08:39:27.218Z,50.19
2023-04-04T08:40:09.340Z,50.18
2023-04-04T08:40:51.078Z,48.92
2023-04-04T08:41:35.637Z,49.64
2023-04-04T08:42:20.495Z,47.48
2023-04-04T08:43:05.468Z,47.37
2023-04-04T08:43:54.313Z,48.35
2023-04-04T08:44:39.590Z,47.77
2023-04-04T08:45:22.225Z,48.13
2023-04-04T08:46:05.984Z,48.01
2023-04-04T08:46:50.167Z,48.16
2023-04-04T08:47:35.676Z,48.50
2023-04-04T08:48:17.952Z,48.47
2023-04-04T08:49:00.799Z,48.23
2023-04-04T08:49:44.427Z,47.48
2023-04-04T08:50:27.566Z,47.91
2023-04-04T08:51:14.040Z,48.34
2023-04-04T08:51:57.648Z,47.74
2023-04-04T08:52:40.651Z,48.34
2023-04-04T08:53:22.710Z,48.60
2023-04-04T08:54:05.717Z,48.77
2023-04-04T08:54:48.202Z,47.87
2023-04-04T08:55:29.873Z,47.98
2023-04-04T08:56:11.856Z,48.50
2023-04-04T08:56:54.212Z,47.35
2023-04-04T08:57:35.973Z,47.88
2023-04-04T08:58:17.715Z,48.33
2023-04-04T08:58:59.436Z,48.14
2023-04-04T08:59:41.326Z,47.66
2023-04-04T09:00:23.572Z,47.63
2023-04-04T09:01:07.255Z,47.99
2023-04-04T09:01:49.194Z,48.20
2023-04-04T09:02:57.914Z,46.69
2023-04-04T09:03:41.278Z,47.18
2023-04-04T09:04:23.597Z,47.10
2023-04-04T09:05:08.379Z,46.81
2023-04-04T09:05:50.454Z,47.06
2023-04-04T09:06:33.464Z,47.73
2023-04-04T09:07:15.971Z,47.03
2023-04-04T09:07:58.310Z,45.72
2023-04-04T09:08:41.468Z,46.94
2023-04-04T09:09:24.038Z,46.75
2023-04-04T09:10:09.004Z,46.22
2023-04-04T09:10:52.361Z,45.99
2023-04-04T09:11:35.853Z,46.28
2023-04-04T09:12:18.675Z,46.15
2023-04-04T09:13:12.616Z,45.55
2023-04-04T09:13:58.148Z,46.92
2023-04-04T09:14:41.288Z,46.41